Time;durP1;ratioP1;P1;durP2;ratioP2;P2;SDS_P1;SDS_P2;PMS_P1;PMS_P2;Temp;Humidity;BMP_temperature;BMP_pressure;BME280_temperature;BME280_humidity;BME280_pressure;Samples;Min_cycle;Max_cycle;Signal;HPM_P1;HPM_P2
2023/09/17 00:01:07;;;;;;;10.50;9.45;;;;;;;18.48;100.00;98731.19;5028743;28;20196;-56
2023/09/17 00:03:32;;;;;;;10.48;9.57;;;;;;;18.34;100.00;98713.31;5028961;28;20185;-56
2023/09/17 00:05:58;;;;;;;11.48;9.30;;;;;;;18.44;100.00;98735.06;5028647;28;20649;-56
2023/09/17 00:08:23;;;;;;;12.90;9.45;;;;;;;18.36;100.00;98727.94;5028650;28;20568;-56
2023/09/17 00:10:49;;;;;;;11.60;9.98;;;;;;;18.33;100.00;98740.50;5028561;28;20197;-56
2023/09/17 00:13:15;;;;;;;11.05;10.05;;;;;;;18.48;100.00;98747.72;5028468;28;20758;-56
2023/09/17 00:15:40;;;;;;;15.15;10.20;;;;;;;18.45;100.00;98747.19;5028404;28;20186;-56
2023/09/17 00:18:06;;;;;;;11.13;9.95;;;;;;;18.41;100.00;98745.84;5028413;28;20201;-56
2023/09/17 00:20:31;;;;;;;12.60;9.73;;;;;;;18.38;100.00;98749.59;5028444;28;20264;-56
2023/09/17 00:22:59;;;;;;;11.18;10.07;;;;;;;18.46;100.00;98748.84;5028474;28;20339;-56
2023/09/17 00:25:25;;;;;;;14.05;10.25;;;;;;;18.47;100.00;98740.03;5008529;28;20616;-57
2023/09/17 00:27:51;;;;;;;12.57;9.63;;;;;;;18.27;100.00;98722.72;5038765;28;20215;-56
2023/09/17 00:30:16;;;;;;;11.65;10.45;;;;;;;18.40;100.00;98733.69;5048220;28;20648;-56
2023/09/17 00:32:42;;;;;;;14.23;10.35;;;;;;;18.31;100.00;98719.69;5048263;28;20268;-56
2023/09/17 00:35:07;;;;;;;13.63;9.90;;;;;;;18.31;100.00;98740.63;5048176;28;20240;-55
2023/09/17 00:37:33;;;;;;;11.07;9.93;;;;;;;18.46;100.00;98739.19;5048061;28;20239;-57
2023/09/17 00:39:58;;;;;;;11.70;10.48;;;;;;;18.25;100.00;98708.94;5048032;28;20196;-57
2023/09/17 00:42:24;;;;;;;14.13;10.63;;;;;;;18.57;100.00;98751.28;5048102;28;20188;-56
2023/09/17 00:44:50;;;;;;;11.63;9.88;;;;;;;18.47;100.00;98724.31;5008330;28;20209;-56
2023/09/17 00:47:15;;;;;;;12.35;10.85;;;;;;;18.31;100.00;98708.34;5008470;28;20518;-56
2023/09/17 00:49:42;;;;;;;11.25;10.05;;;;;;;18.34;100.00;98729.03;5008424;28;20234;-56
2023/09/17 00:52:15;;;;;;;11.10;9.70;;;;;;;18.60;100.00;98751.78;5008231;28;20194;-56
2023/09/17 00:54:43;;;;;;;11.45;10.38;;;;;;;18.55;100.00;98755.84;4988482;28;20298;-56
2023/09/17 00:57:10;;;;;;;11.30;10.10;;;;;;;18.36;100.00;98734.97;5004546;28;20191;-56
2023/09/17 00:59:37;;;;;;;12.63;10.30;;;;;;;18.42;100.00;98742.25;5008175;28;20760;-56
2023/09/17 01:02:04;;;;;;;12.35;10.02;;;;;;;18.35;100.00;98751.66;5008161;28;20661;-56
2023/09/17 01:04:30;;;;;;;12.35;9.73;;;;;;;18.14;100.00;98717.00;5008164;28;20198;-57
2023/09/17 01:06:58;;;;;;;11.88;10.60;;;;;;;18.17;100.00;98721.91;5008309;28;20270;-57
2023/09/17 01:09:25;;;;;;;15.80;9.98;;;;;;;18.15;100.00;98734.34;5010407;28;20595;-57
2023/09/17 01:11:51;;;;;;;12.95;9.95;;;;;;;18.17;100.00;98748.13;5011971;28;20210;-57
2023/09/17 01:14:19;;;;;;;11.85;10.65;;;;;;;18.17;100.00;98750.72;5012081;28;20272;-57
2023/09/17 01:16:45;;;;;;;12.98;9.88;;;;;;;18.18;100.00;98747.97;5029476;28;20251;-57
2023/09/17 01:19:23;;;;;;;10.88;9.73;;;;;;;17.97;100.00;98709.88;5031633;28;20304;-56
2023/09/17 01:22:01;;;;;;;12.40;10.48;;;;;;;18.16;100.00;98751.72;5031309;28;20557;-56
2023/09/17 01:24:37;;;;;;;11.98;10.68;;;;;;;18.12;100.00;98745.94;5031769;28;20186;-57
2023/09/17 01:27:04;;;;;;;15.63;11.10;;;;;;;18.08;100.00;98749.00;5094406;28;20181;-57
2023/09/17 01:29:37;;;;;;;13.02;9.75;;;;;;;18.12;100.00;98750.38;5094248;28;20187;-57
2023/09/17 01:32:04;;;;;;;12.30;10.23;;;;;;;18.00;100.00;98725.28;5094240;28;20711;-56
2023/09/17 01:34:31;;;;;;;17.27;10.30;;;;;;;17.98;100.00;98716.78;5094092;28;20207;-56
2023/09/17 01:36:59;;;;;;;12.13;10.98;;;;;;;18.08;100.00;98744.56;5094151;28;20194;-57
2023/09/17 01:39:27;;;;;;;12.80;11.23;;;;;;;18.00;100.00;98736.59;5094059;28;20294;-57
2023/09/17 01:41:54;;;;;;;12.23;10.77;;;;;;;17.74;100.00;98705.97;5093980;28;20179;-57
2023/09/17 01:44:22;;;;;;;12.25;10.55;;;;;;;17.85;100.00;98722.31;5093948;28;20529;-55
2023/09/17 01:46:48;;;;;;;12.65;10.40;;;;;;;17.91;100.00;98731.41;5093923;28;20176;-56
2023/09/17 01:49:14;;;;;;;11.27;9.48;;;;;;;17.64;100.00;98692.06;5094110;28;20257;-55
2023/09/17 01:51:41;;;;;;;14.15;10.88;;;;;;;17.52;100.00;98685.38;5093982;28;20171;-56
2023/09/17 01:54:07;;;;;;;14.05;11.00;;;;;;;17.52;100.00;98680.13;5093580;28;20175;-56
2023/09/17 01:56:39;;;;;;;16.98;10.70;;;;;;;17.57;100.00;98684.00;5093564;28;20174;-55
2023/09/17 01:59:04;;;;;;;11.48;10.02;;;;;;;17.76;100.00;98720.56;5093725;28;20204;-56
2023/09/17 02:01:30;;;;;;;11.93;10.15;;;;;;;17.77;100.00;98718.78;5093900;28;20194;-56
2023/09/17 02:03:57;;;;;;;14.45;11.02;;;;;;;17.63;100.00;98690.44;5093645;28;20629;-55
2023/09/17 02:06:23;;;;;;;15.55;11.05;;;;;;;17.83;100.00;98718.22;5093534;28;20243;-56
2023/09/17 02:08:48;;;;;;;11.43;10.38;;;;;;;17.78;100.00;98720.44;5093838;28;20184;-56
2023/09/17 02:11:14;;;;;;;11.05;9.77;;;;;;;17.52;100.00;98672.28;5093394;28;20198;-56
2023/09/17 02:13:39;;;;;;;11.13;9.93;;;;;;;17.77;100.00;98724.81;5093259;28;20329;-57
2023/09/17 02:16:05;;;;;;;14.60;11.15;;;;;;;17.54;100.00;98702.56;5093299;28;20224;-57
2023/09/17 02:18:30;;;;;;;13.50;11.10;;;;;;;17.48;100.00;98686.63;5093212;28;20200;-56
2023/09/17 02:20:55;;;;;;;15.10;10.80;;;;;;;17.55;100.00;98711.25;5092102;28;20638;-56
2023/09/17 02:23:21;;;;;;;16.60;10.75;;;;;;;17.49;100.00;98706.59;5093283;28;20638;-56
2023/09/17 02:25:46;;;;;;;13.07;11.75;;;;;;;17.50;100.00;98703.00;5093153;28;20179;-56
2023/09/17 02:28:13;;;;;;;13.43;10.23;;;;;;;17.53;100.00;98723.63;5093383;28;20175;-56
2023/09/17 02:30:38;;;;;;;13.02;11.05;;;;;;;17.40;100.00;98705.63;5050198;28;20185;-56
2023/09/17 02:33:04;;;;;;;12.23;11.05;;;;;;;17.51;100.00;98717.72;5050348;28;20190;-57
2023/09/17 02:35:29;;;;;;;12.23;11.00;;;;;;;17.40;100.00;98689.09;5050256;28;20196;-56
2023/09/17 02:37:55;;;;;;;12.85;10.57;;;;;;;17.55;100.00;98714.69;5050309;28;20710;-56
2023/09/17 02:40:20;;;;;;;12.68;10.73;;;;;;;17.60;100.00;98728.19;5050228;28;20192;-56
2023/09/17 02:42:46;;;;;;;12.70;10.13;;;;;;;17.74;100.00;98734.75;5050225;28;20181;-56
2023/09/17 02:45:11;;;;;;;12.18;10.45;;;;;;;17.69;100.00;98737.81;5050057;28;20189;-56
2023/09/17 02:47:40;;;;;;;11.93;10.52;;;;;;;17.34;100.00;98700.09;5050191;28;20213;-56
2023/09/17 02:50:06;;;;;;;15.15;10.65;;;;;;;17.62;100.00;98734.13;5050035;28;20627;-56
2023/09/17 02:52:31;;;;;;;10.52;9.43;;;;;;;17.43;100.00;98725.47;5050087;28;20308;-57
2023/09/17 02:54:57;;;;;;;12.27;11.05;;;;;;;17.51;100.00;98718.56;5049954;28;20175;-57
2023/09/17 02:57:22;;;;;;;13.88;10.57;;;;;;;17.57;100.00;98733.72;5049827;28;20200;-57
2023/09/17 02:59:48;;;;;;;13.57;10.52;;;;;;;17.51;100.00;98723.81;5049733;28;20289;-57
2023/09/17 03:02:14;;;;;;;11.43;9.82;;;;;;;17.42;100.00;98714.16;5082171;28;20691;-56
2023/09/17 03:04:39;;;;;;;11.88;10.68;;;;;;;17.22;100.00;98696.00;5092299;28;20168;-56
2023/09/17 03:07:05;;;;;;;10.90;9.90;;;;;;;17.53;100.00;98734.09;5092371;28;20263;-56
2023/09/17 03:09:30;;;;;;;11.15;10.05;;;;;;;17.36;100.00;98692.94;5092285;28;20172;-56
2023/09/17 03:11:56;;;;;;;12.70;10.23;;;;;;;17.52;100.00;98709.75;5092186;28;20244;-56
2023/09/17 03:14:22;;;;;;;11.75;10.23;;;;;;;17.18;100.00;98686.75;5092294;28;20172;-57
2023/09/17 03:16:47;;;;;;;11.77;10.18;;;;;;;17.41;100.00;98730.84;5092256;28;20237;-57
2023/09/17 03:19:13;;;;;;;11.32;10.23;;;;;;;17.29;100.00;98716.22;5092022;28;20254;-57
2023/09/17 03:21:40;;;;;;;10.93;9.93;;;;;;;17.30;100.00;98730.09;5092172;28;20176;-57
2023/09/17 03:24:07;;;;;;;11.05;9.90;;;;;;;17.11;100.00;98689.13;5091908;28;20624;-57
2023/09/17 03:26:32;;;;;;;11.60;9.85;;;;;;;17.36;100.00;98719.09;5092046;28;20175;-57
2023/09/17 03:28:58;;;;;;;11.38;10.25;;;;;;;17.29;100.00;98686.59;5091954;28;20180;-57
2023/09/17 03:31:24;;;;;;;10.77;9.52;;;;;;;17.55;100.00;98724.34;5091757;28;20172;-56
2023/09/17 03:33:49;;;;;;;11.10;10.00;;;;;;;17.30;100.00;98683.03;5091789;28;20172;-56
2023/09/17 03:36:15;;;;;;;11.65;10.20;;;;;;;17.33;100.00;98719.38;5092100;28;20257;-56
2023/09/17 03:38:40;;;;;;;12.73;9.90;;;;;;;17.28;100.00;98700.66;5091434;28;20583;-56
2023/09/17 03:41:05;;;;;;;11.80;10.05;;;;;;;17.34;100.00;98705.31;5091809;28;20171;-57
2023/09/17 03:43:31;;;;;;;12.20;10.77;;;;;;;17.37;100.00;98702.44;5091551;28;20179;-56
2023/09/17 03:45:57;;;;;;;10.95;9.85;;;;;;;17.43;100.00;98726.28;5091644;28;20168;-57
2023/09/17 03:48:22;;;;;;;12.85;9.95;;;;;;;17.49;100.00;98730.13;5091628;28;20186;-56
2023/09/17 03:50:49;;;;;;;11.13;9.82;;;;;;;17.33;100.00;98703.69;5048708;28;20197;-56
2023/09/17 03:53:15;;;;;;;11.20;10.05;;;;;;;17.43;100.00;98726.28;5048864;28;20354;-56
2023/09/17 03:55:44;;;;;;;11.07;9.15;;;;;;;17.13;100.00;98707.28;5048870;28;20688;-56
2023/09/17 03:58:10;;;;;;;10.98;9.88;;;;;;;17.13;100.00;98705.50;5048807;28;20606;-56
2023/09/17 04:00:38;;;;;;;12.80;11.07;;;;;;;17.03;100.00;98686.34;5048703;28;20193;-56
2023/09/17 04:03:05;;;;;;;11.23;10.02;;;;;;;17.18;100.00;98716.38;5048733;28;20359;-56
2023/09/17 04:05:30;;;;;;;12.35;9.05;;;;;;;17.12;100.00;98705.63;5048625;28;20201;-57
2023/09/17 04:07:56;;;;;;;11.23;10.05;;;;;;;17.06;100.00;98685.25;5048428;28;20193;-56
2023/09/17 04:10:21;;;;;;;12.20;9.48;;;;;;;17.34;100.00;98726.25;5048447;28;20276;-57
2023/09/17 04:12:47;;;;;;;11.88;9.57;;;;;;;17.41;100.00;98730.00;5048340;28;20207;-57
2023/09/17 04:15:18;;;;;;;12.13;9.25;;;;;;;17.24;100.00;98700.13;5048505;28;20215;-57
2023/09/17 04:17:45;;;;;;;11.80;9.27;;;;;;;17.27;100.00;98694.63;5048386;28;20213;-56
2023/09/17 04:20:13;;;;;;;12.02;9.68;;;;;;;17.45;100.00;98713.06;5048460;28;20227;-57
2023/09/17 04:22:46;;;;;;;10.02;9.02;;;;;;;17.42;100.00;98705.47;5008662;28;20194;-57
2023/09/17 04:25:13;;;;;;;10.95;8.93;;;;;;;17.43;100.00;98699.31;5008766;28;20665;-57
2023/09/17 04:27:41;;;;;;;10.18;8.85;;;;;;;17.56;100.00;98699.81;5008700;28;20198;-56
2023/09/17 04:30:08;;;;;;;10.93;9.80;;;;;;;17.60;100.00;98701.19;5008594;28;20241;-56
2023/09/17 04:32:37;;;;;;;11.00;9.60;;;;;;;17.72;100.00;98713.16;5008636;28;20209;-57
2023/09/17 04:35:07;;;;;;;9.50;8.57;;;;;;;17.86;100.00;98736.25;5008680;28;20277;-56
2023/09/17 04:37:38;;;;;;;12.88;8.90;;;;;;;17.86;100.00;98744.09;5008536;28;20190;-57
2023/09/17 04:40:08;;;;;;;9.80;8.80;;;;;;;17.59;100.00;98710.00;5008554;28;20242;-57
2023/09/17 04:42:35;;;;;;;9.13;8.27;;;;;;;17.80;100.00;98747.28;5008448;28;20726;-57
2023/09/17 04:45:04;;;;;;;10.80;8.82;;;;;;;17.67;100.00;98708.31;5008046;28;20273;-57
2023/09/17 04:47:32;;;;;;;10.40;9.27;;;;;;;17.90;100.00;98754.13;5008646;28;20214;-56
2023/09/17 04:49:58;;;;;;;9.50;8.55;;;;;;;17.70;100.00;98717.69;5008537;28;20232;-57
2023/09/17 04:52:23;;;;;;;9.32;8.43;;;;;;;17.95;100.00;98748.50;5008424;28;20273;-57
2023/09/17 04:54:48;;;;;;;9.60;8.60;;;;;;;17.92;100.00;98754.84;5047470;28;20268;-57
2023/09/17 04:57:14;;;;;;;10.07;8.45;;;;;;;17.73;100.00;98722.66;5048025;28;20557;-57
2023/09/17 04:59:40;;;;;;;10.00;8.88;;;;;;;17.96;100.00;98750.13;5047892;28;20209;-57
2023/09/17 05:02:05;;;;;;;9.68;8.05;;;;;;;17.80;100.00;98718.50;5047952;28;20173;-57
2023/09/17 05:04:31;;;;;;;13.05;9.07;;;;;;;17.85;100.00;98722.31;5048088;28;20234;-57
2023/09/17 05:06:56;;;;;;;11.52;8.18;;;;;;;17.90;100.00;98730.56;5047981;28;20173;-57
2023/09/17 05:09:22;;;;;;;11.85;8.73;;;;;;;18.12;100.00;98760.84;5083636;28;20271;-57
2023/09/17 05:11:48;;;;;;;11.02;8.60;;;;;;;18.02;100.00;98728.63;5090485;28;20191;-55
2023/09/17 05:14:13;;;;;;;10.25;9.20;;;;;;;18.17;100.00;98755.97;5090364;28;20210;-56
2023/09/17 05:16:39;;;;;;;8.95;7.68;;;;;;;18.13;100.00;98752.00;5090608;28;20175;-56
2023/09/17 05:19:05;;;;;;;9.27;7.57;;;;;;;18.29;100.00;98766.13;5090540;28;20208;-55
2023/09/17 05:21:30;;;;;;;11.45;8.20;;;;;;;18.22;100.00;98735.41;5090581;28;20602;-56
2023/09/17 05:23:55;;;;;;;14.48;8.68;;;;;;;18.44;100.00;98756.03;5090630;28;20260;-56
2023/09/17 05:26:21;;;;;;;8.20;6.82;;;;;;;18.47;100.00;98750.50;5090285;28;20215;-56
2023/09/17 05:28:47;;;;;;;10.38;7.82;;;;;;;18.45;100.00;98736.72;5090755;28;20172;-56
2023/09/17 05:31:13;;;;;;;9.82;7.55;;;;;;;18.55;100.00;98754.06;5090399;28;20507;-56
2023/09/17 05:33:42;;;;;;;11.55;7.18;;;;;;;18.67;100.00;98773.03;5090345;28;20198;-56
2023/09/17 05:36:07;;;;;;;7.88;7.05;;;;;;;18.65;100.00;98764.47;5090294;28;20625;-56
2023/09/17 05:38:33;;;;;;;9.85;7.28;;;;;;;18.74;100.00;98763.59;5090250;28;20247;-56
2023/09/17 05:40:58;;;;;;;12.45;7.38;;;;;;;18.84;100.00;98772.22;5090352;28;20520;-56
2023/09/17 05:43:24;;;;;;;8.20;7.30;;;;;;;18.75;100.00;98752.13;5089937;28;20184;-55
2023/09/17 05:45:56;;;;;;;7.90;7.20;;;;;;;18.68;100.00;98745.81;5090261;28;20184;-56
2023/09/17 05:48:24;;;;;;;10.40;7.53;;;;;;;18.93;100.00;98768.69;5090366;28;20187;-55
2023/09/17 05:50:50;;;;;;;9.40;7.35;;;;;;;19.08;100.00;98785.59;5090256;28;20195;-56
2023/09/17 05:53:16;;;;;;;8.73;7.32;;;;;;;19.16;100.00;98783.88;5090230;28;20546;-56
2023/09/17 05:55:42;;;;;;;9.77;7.60;;;;;;;19.11;100.00;98756.44;5092944;28;20186;-56
2023/09/17 05:58:08;;;;;;;8.38;7.50;;;;;;;19.43;100.00;98785.63;5093815;28;20512;-57
2023/09/17 06:00:33;;;;;;;8.15;6.95;;;;;;;19.33;100.00;98756.84;5093851;28;20266;-57
2023/09/17 06:02:59;;;;;;;8.05;7.35;;;;;;;19.26;100.00;98749.72;5093735;28;20263;-57
2023/09/17 06:05:24;;;;;;;9.73;8.10;;;;;;;19.30;100.00;98751.06;5093996;28;20659;-57
2023/09/17 06:07:49;;;;;;;8.43;7.30;;;;;;;19.53;100.00;98789.81;5093741;28;20176;-57
2023/09/17 06:10:15;;;;;;;9.95;7.85;;;;;;;19.70;100.00;98780.28;5093643;28;20176;-57
2023/09/17 06:12:41;;;;;;;9.57;8.07;;;;;;;19.58;100.00;98765.75;5093883;28;20183;-57
2023/09/17 06:15:07;;;;;;;10.40;7.50;;;;;;;19.70;100.00;98775.03;5093624;28;20179;-57
2023/09/17 06:17:32;;;;;;;11.98;7.43;;;;;;;19.71;100.00;98761.72;5093498;28;20168;-57
2023/09/17 06:19:57;;;;;;;15.90;7.85;;;;;;;19.88;100.00;98758.22;5093436;28;20199;-57
2023/09/17 06:22:23;;;;;;;9.57;7.72;;;;;;;20.19;100.00;98798.03;5070499;28;20185;-58
2023/09/17 06:24:49;;;;;;;7.95;6.85;;;;;;;20.21;99.94;98773.25;5070676;28;20221;-57
2023/09/17 06:27:14;;;;;;;7.53;6.68;;;;;;;20.25;100.00;98768.50;5070692;28;20656;-57
2023/09/17 06:29:39;;;;;;;8.52;6.45;;;;;;;20.34;99.04;98770.19;5070594;28;20271;-57
2023/09/17 06:32:05;;;;;;;6.97;6.28;;;;;;;20.66;97.52;98807.13;5070581;28;20185;-57
2023/09/17 06:34:31;;;;;;;10.77;6.43;;;;;;;20.66;97.58;98799.25;5070420;28;20230;-57
2023/09/17 06:36:56;;;;;;;10.50;6.85;;;;;;;20.62;97.59;98795.28;5070364;28;20184;-57
2023/09/17 06:39:22;;;;;;;9.90;6.93;;;;;;;20.63;98.38;98786.41;5070368;28;20375;-56
2023/09/17 06:41:47;;;;;;;10.45;7.43;;;;;;;20.69;97.35;98797.09;5070320;28;20192;-57
2023/09/17 06:44:12;;;;;;;9.23;7.50;;;;;;;20.61;98.47;98796.25;5070260;28;20263;-57
2023/09/17 06:46:38;;;;;;;8.10;7.25;;;;;;;20.61;98.34;98788.38;5070232;28;20655;-57
2023/09/17 06:49:03;;;;;;;13.95;6.88;;;;;;;20.60;99.41;98776.22;5070095;28;20192;-57
2023/09/17 06:51:29;;;;;;;10.52;7.68;;;;;;;20.80;99.92;98796.03;5070135;28;20184;-57
2023/09/17 06:53:54;;;;;;;8.77;7.95;;;;;;;20.82;99.82;98801.94;5086589;28;20235;-57
2023/09/17 06:56:23;;;;;;;9.27;8.30;;;;;;;20.74;99.76;98775.63;5092660;28;20195;-57
2023/09/17 06:58:49;;;;;;;12.95;8.63;;;;;;;20.83;100.00;98761.50;5092419;28;20754;-57
2023/09/17 07:01:14;;;;;;;12.95;9.90;;;;;;;20.98;100.00;98776.50;5092700;28;20172;-57
2023/09/17 07:03:39;;;;;;;12.13;9.52;;;;;;;21.26;100.00;98800.75;5092575;28;20179;-56
2023/09/17 07:06:05;;;;;;;17.17;11.82;;;;;;;21.22;100.00;98768.66;5091918;28;20208;-56
2023/09/17 07:08:30;;;;;;;15.35;11.15;;;;;;;21.53;100.00;98788.13;5092413;28;20247;-56
2023/09/17 07:10:56;;;;;;;15.63;11.98;;;;;;;21.56;100.00;98765.91;5092408;28;20188;-56
2023/09/17 07:13:21;;;;;;;17.35;12.25;;;;;;;21.84;100.00;98796.19;5092367;28;20180;-56
2023/09/17 07:15:47;;;;;;;15.90;11.40;;;;;;;21.76;100.00;98757.53;5092281;28;20179;-56
2023/09/17 07:18:13;;;;;;;19.05;12.60;;;;;;;21.92;100.00;98778.56;5092167;28;20265;-56
2023/09/17 07:20:39;;;;;;;17.92;14.10;;;;;;;21.89;100.00;98764.91;5092280;28;20176;-56
2023/09/17 07:23:08;;;;;;;19.45;15.60;;;;;;;22.05;100.00;98757.81;5092105;28;20206;-56
2023/09/17 07:25:34;;;;;;;26.00;19.15;;;;;;;22.18;100.00;98767.78;5092029;28;20591;-57
2023/09/17 07:28:04;;;;;;;29.65;19.73;;;;;;;22.50;100.00;98783.56;5092347;28;20254;-57
2023/09/17 07:30:34;;;;;;;23.15;17.85;;;;;;;22.61;100.00;98791.09;5092034;28;20176;-57
2023/09/17 07:32:59;;;;;;;25.58;16.80;;;;;;;22.57;100.00;98795.91;5091796;28;20190;-56
2023/09/17 07:35:25;;;;;;;26.65;17.80;;;;;;;22.65;100.00;98787.09;5092209;28;20176;-57
2023/09/17 07:37:50;;;;;;;23.65;17.83;;;;;;;22.80;100.00;98796.78;5091799;28;20176;-56
2023/09/17 07:40:16;;;;;;;19.95;16.73;;;;;;;22.69;100.00;98788.41;5091901;28;20174;-57
2023/09/17 07:42:41;;;;;;;24.13;16.38;;;;;;;22.51;100.00;98774.66;5091807;28;20600;-57
2023/09/17 07:45:07;;;;;;;23.67;17.35;;;;;;;22.55;100.00;98794.44;5091506;28;20225;-57
2023/09/17 07:47:33;;;;;;;24.38;15.85;;;;;;;22.51;100.00;98783.41;5091733;28;20217;-56
2023/09/17 07:49:58;;;;;;;20.50;17.45;;;;;;;22.65;100.00;98781.84;5068746;28;20192;-56
2023/09/17 07:52:24;;;;;;;21.70;17.33;;;;;;;22.60;100.00;98778.91;5048683;28;20695;-57
2023/09/17 07:54:49;;;;;;;27.95;19.13;;;;;;;22.77;100.00;98812.97;5048847;28;20185;-56
2023/09/17 07:57:15;;;;;;;24.52;19.42;;;;;;;22.51;100.00;98774.66;5048613;28;20561;-57
2023/09/17 07:59:40;;;;;;;25.58;19.15;;;;;;;22.51;100.00;98774.66;5048672;28;20592;-57
2023/09/17 08:02:06;;;;;;;22.67;18.45;;;;;;;22.87;100.00;98789.00;5048704;28;20193;-56
2023/09/17 08:04:31;;;;;;;24.92;18.08;;;;;;;23.08;100.00;98794.50;5048684;28;20717;-56
2023/09/17 08:06:57;;;;;;;28.25;18.42;;;;;;;23.26;100.00;98803.00;5048558;28;20659;-56
2023/09/17 08:09:23;;;;;;;23.63;18.75;;;;;;;23.36;96.80;98791.19;5048738;28;20177;-57
2023/09/17 08:11:51;;;;;;;27.52;18.02;;;;;;;23.38;94.05;98778.66;5048273;28;20224;-57
2023/09/17 08:14:22;;;;;;;20.23;15.25;;;;;;;23.37;90.13;98790.19;5048448;28;20200;-57
2023/09/17 08:16:48;;;;;;;23.15;15.63;;;;;;;23.52;90.63;98806.09;5048526;28;20181;-57
2023/09/17 08:19:14;;;;;;;23.00;17.55;;;;;;;23.36;91.25;98787.75;5047455;28;20208;-56
2023/09/17 08:21:39;;;;;;;19.83;14.27;;;;;;;23.24;88.15;98789.16;5048417;28;20651;-57
2023/09/17 08:24:05;;;;;;;23.23;17.77;;;;;;;23.40;88.86;98789.00;5064252;28;20192;-57
2023/09/17 08:26:30;;;;;;;24.25;18.85;;;;;;;23.68;89.01;98804.16;5068890;28;20177;-57
2023/09/17 08:28:56;;;;;;;30.23;20.40;;;;;;;23.61;89.65;98775.97;5070790;28;20209;-57
2023/09/17 08:31:25;;;;;;;30.92;18.88;;;;;;;23.64;90.21;98797.59;5070713;28;20237;-56
2023/09/17 08:33:52;;;;;;;27.08;17.90;;;;;;;23.65;89.46;98769.34;5070747;28;20265;-56
2023/09/17 08:36:23;;;;;;;28.05;19.25;;;;;;;23.68;88.39;98770.63;5070473;28;20654;-56
2023/09/17 08:38:50;;;;;;;31.90;18.92;;;;;;;23.85;89.24;98795.91;5070755;28;20200;-57
2023/09/17 08:41:18;;;;;;;24.90;18.08;;;;;;;23.87;89.16;98803.66;5070593;28;20199;-57
2023/09/17 08:43:45;;;;;;;23.17;16.63;;;;;;;23.69;88.66;98772.25;5070661;28;20172;-57
2023/09/17 08:46:11;;;;;;;26.67;17.67;;;;;;;23.90;86.39;98791.94;5070502;28;20203;-56
2023/09/17 08:48:36;;;;;;;24.15;18.23;;;;;;;23.82;87.56;98784.88;5070364;28;20680;-56
2023/09/17 08:51:04;;;;;;;25.42;18.77;;;;;;;23.73;88.52;98797.34;5070581;28;20177;-56
2023/09/17 08:53:35;;;;;;;27.30;20.60;;;;;;;23.55;87.63;98771.41;5070578;28;20184;-55
2023/09/17 08:56:01;;;;;;;31.52;20.50;;;;;;;23.65;87.59;98780.72;5070516;28;20336;-55
2023/09/17 08:58:35;;;;;;;29.83;18.60;;;;;;;23.48;87.37;98754.63;5070430;28;20215;-56
2023/09/17 09:01:03;;;;;;;22.40;16.35;;;;;;;23.56;86.64;98762.47;5070229;28;20669;-56
2023/09/17 09:03:33;;;;;;;27.17;18.00;;;;;;;23.78;84.47;98767.72;5070478;28;20180;-56
2023/09/17 09:06:00;;;;;;;28.00;16.55;;;;;;;23.97;83.77;98774.34;5070423;28;20180;-56
2023/09/17 09:08:26;;;;;;;24.13;17.50;;;;;;;24.14;84.03;98793.34;5070449;28;20203;-56
2023/09/17 09:10:51;;;;;;;25.92;17.38;;;;;;;24.28;84.13;98781.97;5070137;28;20177;-56
2023/09/17 09:13:18;;;;;;;20.20;16.80;;;;;;;24.41;82.91;98771.56;5089472;28;20283;-56
2023/09/17 09:15:45;;;;;;;25.90;18.73;;;;;;;24.56;81.60;98769.72;5090453;28;20168;-56
2023/09/17 09:18:11;;;;;;;23.70;18.45;;;;;;;24.83;81.31;98803.50;5090221;28;20180;-56
2023/09/17 09:20:37;;;;;;;21.15;16.63;;;;;;;24.76;81.18;98772.63;5090459;28;20179;-56
2023/09/17 09:23:05;;;;;;;24.77;18.73;;;;;;;24.73;80.41;98776.47;5090034;28;20175;-56
2023/09/17 09:25:31;;;;;;;25.73;18.17;;;;;;;24.72;79.94;98774.03;5090412;28;20623;-56
2023/09/17 09:28:00;;;;;;;24.92;17.25;;;;;;;24.77;79.87;98775.09;5090361;28;20194;-56
2023/09/17 09:30:26;;;;;;;19.92;16.10;;;;;;;24.81;78.91;98800.22;5092474;28;20176;-57
2023/09/17 09:32:52;;;;;;;22.50;15.95;;;;;;;24.66;78.06;98756.25;5094177;28;20180;-56
2023/09/17 09:35:18;;;;;;;21.73;18.17;;;;;;;24.78;77.73;98768.81;5071185;28;20184;-56
2023/09/17 09:37:43;;;;;;;23.08;17.23;;;;;;;24.67;78.33;98789.66;5071436;28;20188;-56
2023/09/17 09:40:09;;;;;;;25.15;16.73;;;;;;;24.44;79.96;98781.75;5071286;28;20543;-56
2023/09/17 09:42:35;;;;;;;27.13;18.90;;;;;;;24.58;80.05;98777.50;5071111;28;20723;-56
2023/09/17 09:45:02;;;;;;;25.33;17.52;;;;;;;24.56;79.90;98753.84;5071119;28;20547;-56
2023/09/17 09:47:30;;;;;;;30.40;19.02;;;;;;;24.87;78.38;98772.16;5071196;28;20196;-56
2023/09/17 09:49:56;;;;;;;23.45;17.23;;;;;;;24.92;76.74;98760.03;5071159;28;20199;-56
2023/09/17 09:52:22;;;;;;;26.60;16.98;;;;;;;25.06;75.00;98756.50;5070993;28;20196;-56
2023/09/17 09:54:48;;;;;;;22.45;16.25;;;;;;;25.24;74.15;98772.81;5011216;28;20281;-56
2023/09/17 09:57:15;;;;;;;21.27;16.95;;;;;;;25.31;75.37;98775.53;5011342;28;20195;-56
2023/09/17 09:59:46;;;;;;;24.48;17.42;;;;;;;25.37;75.01;98764.19;5011144;28;20225;-56
2023/09/17 10:02:14;;;;;;;29.98;18.05;;;;;;;25.42;73.86;98765.25;5011262;28;20571;-56
2023/09/17 10:04:40;;;;;;;23.73;17.50;;;;;;;25.53;72.93;98764.72;5011097;28;20301;-56
2023/09/17 10:07:07;;;;;;;21.92;16.83;;;;;;;25.39;72.60;98733.84;5011079;28;20274;-56
2023/09/17 10:09:33;;;;;;;22.13;16.55;;;;;;;25.67;72.50;98761.16;5011083;28;20742;-57
2023/09/17 10:11:59;;;;;;;20.95;15.40;;;;;;;25.70;72.12;98744.91;5010364;28;20317;-56
2023/09/17 10:14:26;;;;;;;28.67;17.52;;;;;;;25.81;71.41;98741.72;5027855;28;20198;-57
2023/09/17 10:16:52;;;;;;;26.83;16.92;;;;;;;26.02;70.92;98754.94;5030674;28;20177;-56
2023/09/17 10:19:21;;;;;;;20.30;14.98;;;;;;;26.02;66.89;98733.72;5030576;28;20205;-56
2023/09/17 10:21:48;;;;;;;20.45;15.88;;;;;;;25.95;67.35;98742.66;5030625;28;20228;-56
2023/09/17 10:24:15;;;;;;;20.40;14.80;;;;;;;25.94;66.85;98736.53;5030686;28;20668;-56
2023/09/17 10:26:42;;;;;;;20.45;14.98;;;;;;;26.12;65.35;98744.00;5085178;28;20196;-56
2023/09/17 10:29:13;;;;;;;24.83;14.05;;;;;;;25.83;65.93;98734.38;5093178;28;20184;-56
2023/09/17 10:31:41;;;;;;;22.58;15.23;;;;;;;26.17;65.30;98753.00;5093031;28;20180;-56
2023/09/17 10:34:09;;;;;;;19.67;15.20;;;;;;;26.22;64.63;98734.69;5093127;28;20754;-56
2023/09/17 10:36:38;;;;;;;19.70;14.35;;;;;;;26.37;63.36;98719.44;5050133;28;20277;-56
2023/09/17 10:39:06;;;;;;;22.67;15.00;;;;;;;26.60;61.12;98712.00;5050073;28;20252;-56
2023/09/17 10:41:36;;;;;;;22.27;14.60;;;;;;;26.77;60.45;98715.94;5049215;28;20185;-56
2023/09/17 10:44:03;;;;;;;22.38;15.55;;;;;;;26.82;60.75;98710.84;5050124;28;20177;-56
2023/09/17 10:46:31;;;;;;;24.08;15.93;;;;;;;26.89;60.77;98701.06;5050010;28;20196;-56
2023/09/17 10:48:57;;;;;;;25.63;15.77;;;;;;;27.05;60.08;98719.28;5050134;28;20256;-57
2023/09/17 10:51:25;;;;;;;19.27;14.25;;;;;;;27.31;58.54;98722.03;5050093;28;20189;-57
2023/09/17 10:53:50;;;;;;;19.77;13.80;;;;;;;26.99;56.98;98712.13;5050090;28;20177;-57
2023/09/17 10:56:16;;;;;;;18.40;13.45;;;;;;;26.96;57.08;98691.28;5049944;28;20192;-57
2023/09/17 10:58:52;;;;;;;19.30;14.55;;;;;;;27.15;57.31;98706.44;5050046;28;20212;-57
2023/09/17 11:01:25;;;;;;;21.45;15.00;;;;;;;27.23;58.51;98687.66;5049885;28;20237;-58
2023/09/17 11:03:55;;;;;;;21.40;12.68;;;;;;;27.29;55.90;98702.78;5049896;28;20384;-56
2023/09/17 11:06:26;;;;;;;21.60;13.68;;;;;;;26.96;56.55;98687.81;5049832;28;20185;-56
2023/09/17 11:08:56;;;;;;;18.45;11.98;;;;;;;27.22;54.65;98707.28;5092470;28;20199;-57
2023/09/17 11:11:23;;;;;;;18.23;11.95;;;;;;;27.30;54.73;98687.69;5091682;28;21965;-57
2023/09/17 11:13:50;;;;;;;19.05;12.07;;;;;;;27.43;54.19;98674.38;5092338;28;20199;-57